createdAt,value
2022-10-29T00:01:00.836Z,101115.22
2022-10-29T00:03:28.192Z,101123.56
2022-10-29T00:06:06.363Z,101134.78
2022-10-29T00:08:37.134Z,101120.84
2022-10-29T00:11:13.377Z,101119.34
2022-10-29T00:13:41.273Z,101118.84
2022-10-29T00:16:20.764Z,101119.03
2022-10-29T00:18:48.353Z,101113.69
2022-10-29T00:21:22.402Z,101111.97
2022-10-29T00:23:50.903Z,101103.13
2022-10-29T00:26:21.460Z,101100.59
2022-10-29T00:28:52.371Z,101099.28
2022-10-29T00:31:20.801Z,101110.50
2022-10-29T00:33:48.071Z,101107.28
2022-10-29T00:36:29.135Z,101099.81
2022-10-29T00:38:57.112Z,101099.00
2022-10-29T00:41:29.358Z,101105.69
2022-10-29T00:44:14.849Z,101109.31
2022-10-29T00:46:51.678Z,101108.03
2022-10-29T00:49:20.103Z,101103.00
2022-10-29T00:51:48.427Z,101102.09
2022-10-29T00:54:17.091Z,101100.78
2022-10-29T00:56:52.784Z,101105.75
2022-10-29T00:59:19.879Z,101106.66
2022-10-29T01:01:49.559Z,101098.38
2022-10-29T01:04:18.769Z,101092.72
2022-10-29T01:06:47.227Z,101090.88
2022-10-29T01:09:14.834Z,101097.09
2022-10-29T01:11:58.138Z,101102.53
2022-10-29T01:15:24.230Z,101100.06
2022-10-29T01:18:19.126Z,101101.47
2022-10-29T01:21:17.113Z,101105.63
2022-10-29T01:24:20.366Z,101101.78
2022-10-29T01:27:22.057Z,101105.22
2022-10-29T01:30:19.014Z,101092.91
2022-10-29T01:33:12.608Z,101098.66
2022-10-29T01:36:02.019Z,101092.03
2022-10-29T01:39:19.780Z,101095.44
2022-10-29T01:42:20.040Z,101084.75
2022-10-29T01:45:36.936Z,101079.41
2022-10-29T01:48:18.822Z,101076.78
2022-10-29T01:50:51.745Z,101070.88
2022-10-29T01:53:19.603Z,101066.50
2022-10-29T01:55:46.804Z,101065.47
2022-10-29T01:58:14.573Z,101059.44
2022-10-29T02:01:20.291Z,101056.50
2022-10-29T02:04:20.683Z,101058.13
2022-10-29T02:07:12.331Z,101054.81
2022-10-29T02:10:21.847Z,101040.91
2022-10-29T02:12:53.971Z,101046.34
2022-10-29T02:16:06.856Z,101045.66
2022-10-29T02:18:49.344Z,101051.91
2022-10-29T02:21:19.173Z,101044.56
2022-10-29T02:23:47.145Z,101045.09
2022-10-29T02:26:14.522Z,101032.91
2022-10-29T02:28:42.259Z,101034.91
2022-10-29T02:31:10.170Z,101035.31
2022-10-29T02:33:37.396Z,101045.09
2022-10-29T02:36:05.230Z,101049.19
2022-10-29T02:38:32.386Z,101043.59
2022-10-29T02:40:59.518Z,101044.28
2022-10-29T02:43:26.741Z,101040.69
2022-10-29T02:46:22.387Z,101047.41
2022-10-29T02:48:50.528Z,101049.69
2022-10-29T02:51:18.530Z,101039.66
2022-10-29T02:53:45.968Z,101039.75
2022-10-29T02:56:13.160Z,101035.72
2022-10-29T02:58:40.420Z,101036.13
2022-10-29T03:01:07.713Z,101040.78
2022-10-29T03:03:34.947Z,101041.75
2022-10-29T03:06:02.069Z,101036.09
2022-10-29T03:08:29.286Z,101041.06
2022-10-29T03:10:56.512Z,101032.91
2022-10-29T03:13:23.781Z,101033.38
2022-10-29T03:15:50.952Z,101031.88
2022-10-29T03:18:18.076Z,101033.69
2022-10-29T03:20:45.555Z,101034.72
2022-10-29T03:23:12.893Z,101030.66
2022-10-29T03:25:40.123Z,101041.56
2022-10-29T03:28:07.703Z,101037.69
2022-10-29T03:30:34.864Z,101038.00
2022-10-29T03:33:02.016Z,101034.09
2022-10-29T03:35:29.293Z,101037.56
2022-10-29T03:37:56.571Z,101035.25
2022-10-29T03:40:23.743Z,101038.25
2022-10-29T03:42:50.922Z,101035.84
2022-10-29T03:45:18.080Z,101041.56
2022-10-29T03:47:45.286Z,101031.19
2022-10-29T03:50:12.624Z,101025.06
2022-10-29T03:52:39.959Z,101029.88
2022-10-29T03:55:08.035Z,101022.84
2022-10-29T03:57:35.386Z,101027.13
2022-10-29T04:00:04.906Z,101031.97
2022-10-29T04:02:40.927Z,101032.16
2022-10-29T04:05:08.904Z,101031.66
2022-10-29T04:07:36.114Z,101031.44
2022-10-29T04:10:03.795Z,101028.22
2022-10-29T04:12:31.049Z,101035.38
2022-10-29T04:14:58.289Z,101033.44
2022-10-29T04:17:25.636Z,101033.75
2022-10-29T04:19:52.831Z,101026.00
2022-10-29T04:30:43.415Z,101041.88
2022-10-29T04:33:10.588Z,101044.97
2022-10-29T04:35:37.739Z,101047.97
2022-10-29T04:38:12.168Z,101043.44
2022-10-29T04:40:39.450Z,101043.03
2022-10-29T04:43:06.692Z,101046.91
2022-10-29T04:45:34.079Z,101042.59
2022-10-29T04:48:06.695Z,101046.22
2022-10-29T04:50:37.443Z,101035.59
2022-10-29T04:53:07.079Z,101044.09
2022-10-29T04:55:39.128Z,101042.03
2022-10-29T04:58:08.538Z,101034.72
2022-10-29T05:00:35.781Z,101036.34
2022-10-29T05:03:03.049Z,101043.88
2022-10-29T05:05:30.286Z,101033.41
2022-10-29T05:08:02.868Z,101039.91
2022-10-29T05:10:37.767Z,101038.91
2022-10-29T05:13:12.018Z,101045.22
2022-10-29T05:15:40.493Z,101047.84
2022-10-29T05:18:09.224Z,101037.59
2022-10-29T05:20:36.547Z,101041.19
2022-10-29T05:23:10.770Z,101037.28
2022-10-29T05:25:41.063Z,101037.16
2022-10-29T05:28:15.260Z,101038.38
2022-10-29T05:30:43.838Z,101040.22
2022-10-29T05:33:16.514Z,101028.59
2022-10-29T05:35:44.396Z,101039.06
2022-10-29T05:38:13.823Z,101036.59
2022-10-29T05:40:44.844Z,101032.56
2022-10-29T05:43:16.809Z,101035.66
2022-10-29T05:45:45.356Z,101035.34
2022-10-29T05:48:13.401Z,101039.88
2022-10-29T05:50:40.659Z,101036.78
2022-10-29T05:53:14.543Z,101042.81
2022-10-29T05:55:42.607Z,101039.59
2022-10-29T05:58:13.747Z,101034.06
2022-10-29T06:00:44.669Z,101035.41
2022-10-29T06:03:19.363Z,101044.03
2022-10-29T06:05:49.282Z,101043.81
2022-10-29T06:08:17.691Z,101042.81
2022-10-29T06:10:45.100Z,101049.84
2022-10-29T06:13:15.995Z,101048.06
2022-10-29T06:15:43.927Z,101047.34
2022-10-29T06:18:11.288Z,101042.22
2022-10-29T06:20:39.964Z,101046.50
2022-10-29T06:23:07.757Z,101051.34
2022-10-29T06:25:34.946Z,101048.53
2022-10-29T06:28:12.120Z,101051.94
2022-10-29T06:30:39.387Z,101044.00
2022-10-29T06:33:07.186Z,101045.91
2022-10-29T06:38:10.937Z,101054.41
2022-10-29T06:40:40.998Z,101047.44
2022-10-29T06:43:12.247Z,101054.94
2022-10-29T06:45:39.645Z,101053.06
2022-10-29T06:48:07.420Z,101053.78
2022-10-29T06:50:34.784Z,101049.81
2022-10-29T06:53:10.141Z,101052.13
2022-10-29T06:55:37.331Z,101059.78
2022-10-29T06:58:13.108Z,101066.31
2022-10-29T07:00:42.124Z,101058.84
2022-10-29T07:03:18.162Z,101059.34
2022-10-29T07:05:47.042Z,101059.44
2022-10-29T07:08:14.244Z,101065.44
2022-10-29T07:10:41.647Z,101065.09
2022-10-29T07:13:10.775Z,101073.63
2022-10-29T07:15:38.064Z,101070.75
2022-10-29T07:18:08.127Z,101071.53
2022-10-29T07:20:44.879Z,101063.78
2022-10-29T07:23:13.889Z,101063.84
2022-10-29T07:25:41.970Z,101062.03
2022-10-29T07:28:18.066Z,101055.69
2022-10-29T07:30:45.597Z,101056.25
2022-10-29T07:33:13.209Z,101059.75
2022-10-29T07:35:41.284Z,101063.97
2022-10-29T07:38:11.613Z,101059.66
2022-10-29T07:40:46.910Z,101064.81
2022-10-29T07:43:15.241Z,101060.06
2022-10-29T07:45:49.865Z,101058.28
2022-10-29T07:48:21.504Z,101061.41
2022-10-29T07:50:49.382Z,101060.84
2022-10-29T07:53:17.005Z,101066.63
2022-10-29T07:55:44.436Z,101062.75
2022-10-29T07:58:13.031Z,101068.66
2022-10-29T08:00:41.521Z,101067.94
2022-10-29T08:03:11.863Z,101072.84
2022-10-29T08:05:40.272Z,101064.69
2022-10-29T08:08:09.539Z,101065.22
2022-10-29T08:10:37.175Z,101063.78
2022-10-29T08:13:06.680Z,101059.13
2022-10-29T08:15:34.931Z,101054.94
2022-10-29T08:18:09.248Z,101045.09
2022-10-29T08:20:36.426Z,101047.50
2022-10-29T08:23:03.583Z,101046.34
2022-10-29T08:25:30.796Z,101040.53
2022-10-29T08:28:05.511Z,101049.78
2022-10-29T08:30:34.273Z,101044.84
2022-10-29T08:33:01.930Z,101054.94
2022-10-29T08:35:29.720Z,101055.28
2022-10-29T08:37:57.524Z,101047.94
2022-10-29T08:41:06.995Z,101053.75
2022-10-29T08:43:58.291Z,101046.94
2022-10-29T08:46:56.943Z,101059.53
2022-10-29T08:49:55.827Z,101059.84
2022-10-29T08:52:30.959Z,101055.69
2022-10-29T08:55:03.928Z,101053.06
2022-10-29T08:57:43.082Z,101044.53
2022-10-29T09:00:38.580Z,101048.28
2022-10-29T09:03:13.175Z,101041.41
2022-10-29T09:06:02.203Z,101043.84
2022-10-29T09:08:52.349Z,101047.28
2022-10-29T09:11:40.303Z,101042.44
2022-10-29T09:15:09.452Z,101038.13
2022-10-29T09:17:50.382Z,101041.81
2022-10-29T09:20:51.888Z,101044.72
2022-10-29T09:23:50.677Z,101037.03
2022-10-29T09:26:32.137Z,101037.44
2022-10-29T09:29:52.561Z,101038.16
2022-10-29T09:33:15.423Z,101036.72
2022-10-29T09:35:48.385Z,101034.03
2022-10-29T09:38:30.712Z,101036.97
2022-10-29T09:41:01.703Z,101031.03
2022-10-29T09:44:02.034Z,101026.72
2022-10-29T09:46:35.661Z,101031.34
2022-10-29T09:49:39.768Z,101029.19
2022-10-29T09:52:31.187Z,101029.69
2022-10-29T09:55:01.223Z,101024.63
2022-10-29T09:57:32.086Z,101026.94
2022-10-29T10:00:19.545Z,101032.88
2022-10-29T10:03:10.149Z,101024.41
2022-10-29T10:06:08.329Z,101019.13
2022-10-29T10:09:04.536Z,101019.22
2022-10-29T10:11:44.133Z,101017.47
2022-10-29T10:14:24.659Z,101011.22
2022-10-29T10:17:00.501Z,101007.72
2022-10-29T10:19:32.576Z,101015.03
2022-10-29T10:22:05.804Z,101009.81
2022-10-29T10:24:38.354Z,101004.19
2022-10-29T10:27:31.324Z,101001.66
2022-10-29T10:30:04.566Z,100996.41
2022-10-29T10:32:32.395Z,100996.78
2022-10-29T10:34:59.612Z,100988.72
2022-10-29T10:37:33.555Z,100986.00
2022-10-29T10:40:04.492Z,100986.19
2022-10-29T10:42:42.802Z,100987.31
2022-10-29T10:45:27.912Z,100976.78
2022-10-29T10:47:58.701Z,100972.59
2022-10-29T10:50:44.652Z,100963.16
2022-10-29T10:53:22.414Z,100961.31
2022-10-29T10:55:57.495Z,100958.72
2022-10-29T10:58:41.333Z,100957.31
2022-10-29T11:01:24.447Z,100953.84
2022-10-29T11:04:00.401Z,100945.78
2022-10-29T11:06:38.921Z,100944.88
2022-10-29T11:09:21.402Z,100949.47
2022-10-29T11:12:10.637Z,100949.44
2022-10-29T11:15:16.088Z,100927.94
2022-10-29T11:18:19.986Z,100933.69
2022-10-29T11:21:25.063Z,100929.66
2022-10-29T11:24:10.260Z,100929.56
2022-10-29T11:27:02.841Z,100921.78
2022-10-29T11:30:06.148Z,100924.91
2022-10-29T11:33:40.558Z,100911.13
2022-10-29T11:36:23.016Z,100907.50
2022-10-29T11:39:17.735Z,100911.59
2022-10-29T11:42:00.872Z,100896.63
2022-10-29T11:44:34.475Z,100896.53
2022-10-29T11:47:49.137Z,100883.41
2022-10-29T11:50:52.048Z,100882.44
2022-10-29T11:54:01.660Z,100888.44
2022-10-29T11:56:50.801Z,100880.00
2022-10-29T11:59:50.207Z,100878.88
2022-10-29T12:02:49.334Z,100878.66
2022-10-29T12:05:53.896Z,100870.38
2022-10-29T12:08:52.366Z,100866.28
2022-10-29T12:11:46.096Z,100861.13
2022-10-29T12:14:41.495Z,100850.34
2022-10-29T12:17:24.610Z,100853.94
2022-10-29T12:20:26.809Z,100856.16
2022-10-29T12:23:51.706Z,100849.63
2022-10-29T12:26:36.247Z,100836.09
2022-10-29T12:29:58.912Z,100838.19
2022-10-29T12:33:15.797Z,100835.16
2022-10-29T12:36:18.726Z,100836.97
2022-10-29T12:38:54.303Z,100829.72
2022-10-29T12:41:41.442Z,100825.56
2022-10-29T12:44:45.254Z,100824.63
2022-10-29T12:47:40.414Z,100818.41
2022-10-29T12:50:46.004Z,100820.34
2022-10-29T12:53:35.838Z,100815.94
2022-10-29T12:56:06.452Z,100817.53
2022-10-29T12:58:52.969Z,100818.38
2022-10-29T13:01:38.434Z,100812.53
2022-10-29T13:04:34.448Z,100801.81
2022-10-29T13:07:23.334Z,100800.25
2022-10-29T13:10:23.357Z,100792.97
2022-10-29T13:12:59.009Z,100798.38
2022-10-29T13:15:38.765Z,100794.09
2022-10-29T13:18:49.742Z,100793.88
2022-10-29T13:21:57.954Z,100786.22
2022-10-29T13:24:27.807Z,100784.63
2022-10-29T13:27:18.196Z,100781.72
2022-10-29T13:30:27.822Z,100779.06
2022-10-29T13:32:56.814Z,100777.66
2022-10-29T13:35:27.452Z,100778.75
2022-10-29T13:37:56.285Z,100773.16
2022-10-29T13:40:23.632Z,100767.72
2022-10-29T13:43:09.855Z,100772.22
2022-10-29T13:45:41.581Z,100765.28
2022-10-29T13:48:29.411Z,100767.84
2022-10-29T13:50:58.726Z,100765.44
2022-10-29T13:53:55.096Z,100768.75
2022-10-29T13:56:57.921Z,100765.19
2022-10-29T14:00:03.702Z,100763.41
2022-10-29T14:02:54.703Z,100759.00
2022-10-29T14:06:00.478Z,100761.75
2022-10-29T14:08:45.708Z,100756.50
2022-10-29T14:11:37.975Z,100758.53
2022-10-29T14:14:19.282Z,100748.53
2022-10-29T14:16:46.485Z,100763.53
2022-10-29T14:19:21.071Z,100749.34
2022-10-29T14:21:48.240Z,100748.47
2022-10-29T14:24:16.974Z,100751.31
2022-10-29T14:26:45.669Z,100747.94
2022-10-29T14:29:20.043Z,100744.38
2022-10-29T14:32:04.033Z,100737.31
2022-10-29T14:34:31.487Z,100738.50
2022-10-29T14:37:07.775Z,100738.69
2022-10-29T14:40:00.799Z,100744.22
2022-10-29T14:42:37.791Z,100739.59
2022-10-29T14:45:28.622Z,100737.47
2022-10-29T14:48:05.325Z,100732.66
2022-10-29T14:50:32.444Z,100739.28
2022-10-29T14:53:04.682Z,100735.91
2022-10-29T14:55:37.852Z,100738.72
2022-10-29T15:01:09.006Z,100737.97
2022-10-29T15:03:36.379Z,100729.88
2022-10-29T15:06:24.735Z,100741.56
2022-10-29T15:09:01.501Z,100733.50
2022-10-29T15:11:42.357Z,100733.38
2022-10-29T15:14:30.654Z,100725.31
2022-10-29T15:16:59.137Z,100735.06
2022-10-29T15:19:26.580Z,100733.28
2022-10-29T15:21:53.752Z,100731.34
2022-10-29T15:24:23.260Z,100737.72
2022-10-29T15:26:58.547Z,100735.09
2022-10-29T15:29:33.995Z,100736.19
2022-10-29T15:32:02.200Z,100732.63
2022-10-29T15:34:35.302Z,100741.44
2022-10-29T15:37:43.725Z,100734.06
2022-10-29T15:40:19.809Z,100730.50
2022-10-29T15:42:47.429Z,100731.09
2022-10-29T15:45:29.363Z,100733.38
2022-10-29T15:48:28.486Z,100741.75
2022-10-29T15:50:57.582Z,100737.78
2022-10-29T15:53:24.705Z,100745.44
2022-10-29T15:55:52.970Z,100738.91
2022-10-29T15:58:23.263Z,100750.94
2022-10-29T16:00:51.745Z,100752.22
2022-10-29T16:03:22.859Z,100747.56
2022-10-29T16:06:06.045Z,100755.34
2022-10-29T16:08:41.819Z,100745.81
2022-10-29T16:11:20.760Z,100744.28
2022-10-29T16:13:54.514Z,100755.28
2022-10-29T16:16:25.419Z,100749.53
2022-10-29T16:18:53.389Z,100751.06
2022-10-29T16:21:24.230Z,100752.34
2022-10-29T16:23:51.988Z,100748.22
2022-10-29T16:26:25.072Z,100751.34
2022-10-29T16:28:53.260Z,100749.09
2022-10-29T16:31:26.597Z,100750.50
2022-10-29T16:33:59.529Z,100751.75
2022-10-29T16:36:26.870Z,100747.78
2022-10-29T16:38:54.073Z,100753.69
2022-10-29T16:41:21.502Z,100748.94
2022-10-29T16:43:48.806Z,100750.50
2022-10-29T16:46:16.360Z,100760.84
2022-10-29T16:48:43.621Z,100743.78
2022-10-29T16:51:10.802Z,100751.41
2022-10-29T16:53:38.343Z,100748.50
2022-10-29T16:56:06.244Z,100752.81
2022-10-29T16:58:33.524Z,100750.63
2022-10-29T17:01:10.583Z,100753.91
2022-10-29T17:03:39.122Z,100755.41
2022-10-29T17:06:11.143Z,100763.22
2022-10-29T17:08:38.895Z,100763.88
2022-10-29T17:11:09.884Z,100770.69
2022-10-29T17:13:38.439Z,100768.66
2022-10-29T17:16:14.600Z,100763.16
2022-10-29T17:18:42.151Z,100772.75
2022-10-29T17:21:09.282Z,100769.75
2022-10-29T17:23:36.513Z,100771.97
2022-10-29T17:26:03.739Z,100770.84
2022-10-29T17:28:30.967Z,100769.06
2022-10-29T17:30:58.146Z,100776.03
2022-10-29T17:33:25.351Z,100773.78
2022-10-29T17:36:13.315Z,100777.03
2022-10-29T17:38:41.179Z,100783.06
2022-10-29T17:41:08.698Z,100773.06
2022-10-29T17:43:35.913Z,100781.63
2022-10-29T17:46:03.900Z,100783.28
2022-10-29T17:48:31.535Z,100788.28
2022-10-29T17:51:02.178Z,100787.06
2022-10-29T17:53:31.394Z,100791.25
2022-10-29T17:56:01.074Z,100785.69
2022-10-29T17:58:28.951Z,100791.63
2022-10-29T18:01:03.037Z,100794.84
2022-10-29T18:03:30.237Z,100791.91
2022-10-29T18:06:03.333Z,100793.38
2022-10-29T18:08:31.237Z,100788.09
2022-10-29T18:11:17.626Z,100791.34
2022-10-29T18:13:47.418Z,100798.28
2022-10-29T18:16:25.786Z,100797.22
2022-10-29T18:19:01.966Z,100804.16
2022-10-29T18:21:31.275Z,100806.50
2022-10-29T18:23:58.548Z,100806.44
2022-10-29T18:26:35.839Z,100798.97
2022-10-29T18:29:08.870Z,100801.28
2022-10-29T18:31:37.827Z,100798.59
2022-10-29T18:34:07.581Z,100799.28
2022-10-29T18:36:35.859Z,100794.00
2022-10-29T18:39:05.230Z,100793.06
2022-10-29T18:41:33.967Z,100797.28
2022-10-29T18:44:01.942Z,100795.22
2022-10-29T18:46:29.071Z,100793.28
2022-10-29T18:48:56.221Z,100791.88
2022-10-29T18:51:31.111Z,100793.38
2022-10-29T18:53:59.948Z,100789.97
2022-10-29T18:56:29.399Z,100788.91
2022-10-29T18:58:58.745Z,100796.47
2022-10-29T19:01:31.484Z,100794.41
2022-10-29T19:04:04.269Z,100789.22
2022-10-29T19:06:36.167Z,100788.25
2022-10-29T19:09:08.222Z,100791.41
2022-10-29T19:11:36.451Z,100787.78
2022-10-29T19:14:09.214Z,100798.44
2022-10-29T19:16:36.392Z,100794.97
2022-10-29T19:19:09.493Z,100805.50
2022-10-29T19:21:38.398Z,100795.59
2022-10-29T19:24:07.776Z,100798.78
2022-10-29T19:26:36.171Z,100803.09
2022-10-29T19:29:05.710Z,100791.78
2022-10-29T19:31:35.400Z,100789.16
2022-10-29T19:34:06.982Z,100793.50
2022-10-29T19:36:36.528Z,100801.00
2022-10-29T19:39:04.959Z,100793.72
2022-10-29T19:41:33.104Z,100798.97
2022-10-29T19:44:02.059Z,100792.81
2022-10-29T19:46:30.708Z,100793.44
2022-10-29T19:48:58.579Z,100798.41
2022-10-29T19:51:25.821Z,100788.50
2022-10-29T19:53:53.100Z,100795.28
2022-10-29T19:56:21.661Z,100790.78
2022-10-29T19:58:49.051Z,100785.31
2022-10-29T20:01:18.919Z,100784.47
2022-10-29T20:03:47.439Z,100791.53
2022-10-29T20:06:16.460Z,100784.31
2022-10-29T20:08:44.147Z,100793.13
2022-10-29T20:11:11.528Z,100788.66
2022-10-29T20:13:39.960Z,100792.22
2022-10-29T20:16:12.362Z,100791.31
2022-10-29T20:18:39.757Z,100787.50
2022-10-29T20:21:07.552Z,100790.00
2022-10-29T20:23:35.307Z,100790.78
2022-10-29T20:26:02.554Z,100789.84
2022-10-29T20:28:29.768Z,100794.03
2022-10-29T20:31:30.055Z,100785.72
2022-10-29T20:34:00.309Z,100791.81
2022-10-29T20:36:31.824Z,100795.31
2022-10-29T20:38:59.675Z,100793.69
2022-10-29T20:41:27.574Z,100795.31
2022-10-29T20:43:58.986Z,100795.31
2022-10-29T20:46:27.320Z,100799.56
2022-10-29T20:48:54.631Z,100800.13
2022-10-29T20:51:23.095Z,100804.44
2022-10-29T20:53:51.982Z,100807.81
2022-10-29T20:56:21.804Z,100808.56
2022-10-29T20:58:49.218Z,100807.88
2022-10-29T21:01:19.969Z,100813.06
2022-10-29T21:03:52.163Z,100808.72
2022-10-29T21:06:19.915Z,100803.06
2022-10-29T21:08:50.809Z,100809.47
2022-10-29T21:11:20.650Z,100812.88
2022-10-29T21:13:48.314Z,100815.28
2022-10-29T21:16:27.236Z,100816.63
2022-10-29T21:18:58.932Z,100809.16
2022-10-29T21:21:29.008Z,100809.84
2022-10-29T21:23:57.971Z,100812.31
2022-10-29T21:26:28.103Z,100806.75
2022-10-29T21:28:55.793Z,100803.13
2022-10-29T21:31:24.023Z,100812.59
2022-10-29T21:33:52.971Z,100802.72
2022-10-29T21:36:21.547Z,100814.91
2022-10-29T21:38:49.004Z,100805.09
2022-10-29T21:41:17.306Z,100806.63
2022-10-29T21:43:44.449Z,100803.81
2022-10-29T21:46:11.846Z,100806.84
2022-10-29T21:48:38.941Z,100799.97
2022-10-29T21:51:17.117Z,100799.72
2022-10-29T21:53:44.323Z,100799.13
2022-10-29T21:56:14.341Z,100797.50
2022-10-29T21:58:42.233Z,100801.59
2022-10-29T22:01:16.264Z,100798.00
2022-10-29T22:03:46.106Z,100800.41
2022-10-29T22:06:23.867Z,100801.84
2022-10-29T22:08:57.759Z,100798.41
2022-10-29T22:11:27.853Z,100793.75
2022-10-29T22:13:55.579Z,100792.81
2022-10-29T22:16:23.057Z,100803.16
2022-10-29T22:18:50.903Z,100795.38
2022-10-29T22:21:25.521Z,100795.44
2022-10-29T22:23:56.328Z,100800.69
2022-10-29T22:26:28.522Z,100796.38
2022-10-29T22:28:56.122Z,100800.88
2022-10-29T22:31:24.574Z,100794.50
2022-10-29T22:33:52.417Z,100797.75
2022-10-29T22:36:24.542Z,100801.19
2022-10-29T22:38:58.409Z,100800.38
2022-10-29T22:41:27.188Z,100794.66
2022-10-29T22:43:55.676Z,100787.56
2022-10-29T22:46:22.996Z,100799.97
2022-10-29T22:48:50.221Z,100796.13
2022-10-29T22:51:24.577Z,100795.69
2022-10-29T22:53:53.909Z,100798.25
2022-10-29T22:56:27.794Z,100791.25
2022-10-29T22:58:55.660Z,100792.66
2022-10-29T23:01:30.036Z,100794.28
2022-10-29T23:03:59.076Z,100795.38
2022-10-29T23:06:28.267Z,100793.31
2022-10-29T23:09:01.695Z,100788.09
2022-10-29T23:11:34.827Z,100794.97
2022-10-29T23:14:02.964Z,100785.13
2022-10-29T23:16:33.490Z,100785.75
2022-10-29T23:19:04.699Z,100791.09
2022-10-29T23:21:33.161Z,100786.03
2022-10-29T23:24:00.431Z,100794.31
2022-10-29T23:26:28.915Z,100787.59
2022-10-29T23:28:56.306Z,100789.78
2022-10-29T23:31:27.000Z,100781.50
2022-10-29T23:33:57.484Z,100784.13
2022-10-29T23:36:27.334Z,100790.84
2022-10-29T23:39:00.682Z,100784.53
2022-10-29T23:41:30.202Z,100785.06
2022-10-29T23:43:58.299Z,100785.06
2022-10-29T23:46:25.651Z,100775.41
2022-10-29T23:48:52.812Z,100779.28
2022-10-29T23:51:20.091Z,100786.06
2022-10-29T23:53:50.276Z,100779.28
2022-10-29T23:56:20.376Z,100772.06
2022-10-29T23:58:47.464Z,100773.53
